createdAt,value
2018-05-31T04:01:22.111Z,16.80
2018-05-31T04:03:51.120Z,16.90
2018-05-31T04:06:21.039Z,17.10
2018-05-31T04:08:50.055Z,17.10
2018-05-31T04:11:19.111Z,17.00
2018-05-31T04:13:48.140Z,17.10
2018-05-31T04:16:17.259Z,17.00
2018-05-31T04:18:46.948Z,16.90
2018-05-31T04:21:16.760Z,17.00
2018-05-31T04:23:46.534Z,17.00
2018-05-31T04:26:15.592Z,17.10
2018-05-31T04:28:44.719Z,17.10
2018-05-31T04:31:13.731Z,17.00
2018-05-31T04:33:43.385Z,16.90
2018-05-31T04:36:12.384Z,17.00
2018-05-31T04:38:41.436Z,17.00
2018-05-31T04:41:10.469Z,16.80
2018-05-31T04:43:39.519Z,17.00
2018-05-31T04:46:08.548Z,17.20
2018-05-31T04:48:38.362Z,17.30
2018-05-31T04:51:07.370Z,17.30
2018-05-31T04:53:36.419Z,17.40
2018-05-31T04:56:05.456Z,17.50
2018-05-31T04:58:34.499Z,17.60
2018-05-31T05:01:03.530Z,17.60
2018-05-31T05:03:32.583Z,17.60
2018-05-31T05:06:01.610Z,17.80
2018-05-31T05:08:30.671Z,17.90
2018-05-31T05:10:59.684Z,17.70
2018-05-31T05:13:29.505Z,18.00
2018-05-31T05:15:58.514Z,18.00
2018-05-31T05:18:27.610Z,18.00
2018-05-31T05:20:56.634Z,18.00
2018-05-31T05:23:25.643Z,18.30
2018-05-31T05:25:54.689Z,18.20
2018-05-31T05:28:23.726Z,18.30
2018-05-31T05:30:52.775Z,18.40
2018-05-31T05:33:21.950Z,18.50
2018-05-31T05:35:51.796Z,18.50
2018-05-31T05:38:20.807Z,18.50
2018-05-31T05:40:49.892Z,18.50
2018-05-31T05:43:18.914Z,18.50
2018-05-31T05:45:48.785Z,18.80
2018-05-31T05:48:18.292Z,18.80
2018-05-31T05:50:47.493Z,19.00
2018-05-31T05:53:16.514Z,19.00
2018-05-31T05:55:45.563Z,19.00
2018-05-31T05:58:14.579Z,18.90
2018-05-31T06:00:43.628Z,19.20
2018-05-31T06:03:13.412Z,19.50
2018-05-31T06:05:42.466Z,19.30
2018-05-31T06:08:11.486Z,19.40
2018-05-31T06:10:40.534Z,19.80
2018-05-31T06:13:09.549Z,20.00
2018-05-31T06:15:38.597Z,20.40
2018-05-31T06:18:07.609Z,20.40
2018-05-31T06:20:37.427Z,20.60
2018-05-31T06:23:06.448Z,20.60
2018-05-31T06:25:35.491Z,20.60
2018-05-31T06:28:04.509Z,20.50
2018-05-31T06:30:33.567Z,20.70
2018-05-31T06:33:02.630Z,21.10
2018-05-31T06:35:32.413Z,20.80
2018-05-31T06:38:01.415Z,21.40
2018-05-31T06:40:31.236Z,21.50
2018-05-31T06:43:00.276Z,21.70
2018-05-31T06:45:29.250Z,21.80
2018-05-31T06:47:58.311Z,22.00
2018-05-31T06:50:27.530Z,21.90
2018-05-31T06:52:56.540Z,22.30
2018-05-31T06:55:25.618Z,22.50
2018-05-31T06:57:54.640Z,22.40
2018-05-31T07:00:23.680Z,22.60
2018-05-31T07:02:53.463Z,22.60
2018-05-31T07:05:22.506Z,22.80
2018-05-31T07:07:51.523Z,23.10
2018-05-31T07:10:20.571Z,23.20
2018-05-31T07:12:49.622Z,23.30
2018-05-31T07:15:18.675Z,23.70
2018-05-31T07:17:47.707Z,23.90
2018-05-31T07:20:16.738Z,24.10
2018-05-31T07:22:45.751Z,24.20
2018-05-31T07:25:15.551Z,24.30
2018-05-31T07:27:44.560Z,24.50
2018-05-31T07:30:13.611Z,24.70
2018-05-31T07:32:42.636Z,25.10
2018-05-31T07:35:11.643Z,24.90
2018-05-31T07:37:40.695Z,25.40
2018-05-31T07:40:09.735Z,25.40
2018-05-31T07:42:38.751Z,25.30
2018-05-31T07:45:07.820Z,25.50
2018-05-31T07:47:37.587Z,25.80
2018-05-31T07:50:06.603Z,26.10
2018-05-31T07:52:35.675Z,26.20
2018-05-31T07:55:04.695Z,26.10
2018-05-31T07:57:33.739Z,26.20
2018-05-31T15:02:06.364Z,32.70
2018-05-31T15:04:35.399Z,32.80
2018-05-31T15:07:04.440Z,32.40
2018-05-31T15:09:33.459Z,31.50
2018-05-31T15:12:02.491Z,31.00
2018-05-31T15:14:31.510Z,30.80
2018-05-31T15:17:00.563Z,30.70
2018-05-31T15:19:29.576Z,30.80
2018-05-31T15:21:58.613Z,30.30
2018-05-31T15:24:27.635Z,30.10
2018-05-31T15:26:56.676Z,29.70
2018-05-31T15:29:25.703Z,28.90
2018-05-31T15:31:54.744Z,29.00
2018-05-31T15:34:23.751Z,28.90
2018-05-31T15:36:52.803Z,28.90
2018-05-31T15:39:22.602Z,28.70
2018-05-31T15:41:51.700Z,28.40
2018-05-31T15:44:20.732Z,28.40
2018-05-31T15:46:49.739Z,28.30
2018-05-31T15:49:18.811Z,27.90
2018-05-31T15:51:48.579Z,27.20
2018-05-31T15:54:17.585Z,27.00
2018-05-31T15:56:46.635Z,27.00
2018-05-31T15:59:16.563Z,26.90
2018-05-31T16:01:45.596Z,26.80
2018-05-31T16:04:14.606Z,26.80
2018-05-31T16:06:44.414Z,26.80
2018-05-31T16:09:13.423Z,26.80
2018-05-31T16:11:42.464Z,26.70
2018-05-31T16:14:11.523Z,26.60
2018-05-31T16:16:40.525Z,26.60
2018-05-31T16:19:09.576Z,26.30
2018-05-31T16:21:38.583Z,26.50
2018-05-31T16:24:07.643Z,26.40
2018-05-31T16:26:36.670Z,26.20
2018-05-31T16:29:06.448Z,25.90
2018-05-31T16:31:37.227Z,25.20
2018-05-31T16:34:07.142Z,25.20
2018-05-31T16:36:36.191Z,25.40
2018-05-31T16:39:06.021Z,25.10
2018-05-31T16:41:35.096Z,24.70
2018-05-31T16:44:04.117Z,24.70
2018-05-31T16:46:33.124Z,24.60
2018-05-31T16:49:02.961Z,24.60
2018-05-31T16:51:31.979Z,24.60
2018-05-31T16:54:00.991Z,24.40
2018-05-31T16:56:30.041Z,24.20
2018-05-31T16:58:59.085Z,24.20
2018-05-31T17:01:28.155Z,23.90
2018-05-31T17:03:57.186Z,23.80
2018-05-31T17:06:26.972Z,23.80
2018-05-31T17:08:56.015Z,23.80
2018-05-31T17:11:25.067Z,23.30
2018-05-31T17:13:54.092Z,23.40
2018-05-31T17:16:23.130Z,22.80
2018-05-31T17:18:52.184Z,23.20
2018-05-31T17:21:21.194Z,23.00
2018-05-31T17:23:50.234Z,23.00
2018-05-31T17:26:19.271Z,22.80
2018-05-31T17:28:48.329Z,22.90
2018-05-31T17:31:17.336Z,22.50
2018-05-31T17:33:47.143Z,22.60
2018-05-31T17:36:16.159Z,22.60
2018-05-31T17:38:45.198Z,22.70
2018-05-31T17:41:14.207Z,22.90
2018-05-31T17:43:43.260Z,22.90
2018-05-31T17:46:12.280Z,22.80
2018-05-31T17:48:41.296Z,22.50
2018-05-31T17:51:10.352Z,22.60
2018-05-31T17:53:39.374Z,22.80
2018-05-31T17:56:08.391Z,22.90
2018-05-31T17:58:38.210Z,23.10
2018-05-31T18:01:07.214Z,23.10
2018-05-31T18:03:36.266Z,22.90
2018-05-31T18:06:05.266Z,22.40
2018-05-31T18:08:34.348Z,22.40
2018-05-31T18:11:03.364Z,22.50
2018-05-31T18:13:32.373Z,22.50
2018-05-31T18:16:02.199Z,22.60
2018-05-31T18:18:31.505Z,22.50
2018-05-31T18:21:00.509Z,22.30
2018-05-31T18:23:29.550Z,22.30
2018-05-31T18:25:58.578Z,22.20
2018-05-31T18:28:28.396Z,22.40
2018-05-31T18:30:57.408Z,22.50
2018-05-31T18:33:26.420Z,22.40
2018-05-31T18:35:55.459Z,22.40
2018-05-31T18:38:25.268Z,22.30
2018-05-31T18:40:55.047Z,22.30
2018-05-31T18:43:24.090Z,22.10
2018-05-31T18:45:53.104Z,22.10
2018-05-31T18:48:22.116Z,22.10
2018-05-31T18:50:51.203Z,22.00
2018-05-31T18:53:20.219Z,22.00
2018-05-31T18:55:49.235Z,21.90
2018-05-31T18:58:20.901Z,21.90
2018-05-31T19:00:49.923Z,21.80
2018-05-31T19:03:18.937Z,21.60
2018-05-31T19:05:48.042Z,21.60
2018-05-31T19:08:17.047Z,21.50
2018-05-31T19:10:46.128Z,21.60
2018-05-31T19:13:20.729Z,21.40
2018-05-31T19:15:49.762Z,21.40
2018-05-31T19:18:24.323Z,21.50
2018-05-31T19:20:53.375Z,21.60
2018-05-31T19:23:22.398Z,21.40
2018-05-31T19:25:51.447Z,21.20
2018-05-31T19:28:20.456Z,21.20
2018-05-31T19:30:54.909Z,21.30
2018-05-31T19:33:24.687Z,21.00
2018-05-31T19:35:59.214Z,21.00
2018-05-31T19:38:28.222Z,21.10
2018-05-31T19:40:57.311Z,20.80
2018-05-31T19:43:31.920Z,20.90
2018-05-31T19:46:01.011Z,20.90
2018-05-31T19:48:30.014Z,20.90
2018-05-31T19:50:59.028Z,20.90
2018-05-31T19:53:33.552Z,21.00
2018-05-31T19:56:03.352Z,21.10
2018-05-31T19:58:37.971Z,20.90
2018-05-31T20:01:12.629Z,20.90
2018-05-31T20:03:41.627Z,20.90
2018-05-31T20:06:10.717Z,21.10
2018-05-31T20:08:39.723Z,21.10
2018-05-31T20:11:08.740Z,21.10
2018-05-31T20:13:37.790Z,21.30
2018-05-31T20:16:07.583Z,21.40
2018-05-31T20:18:36.603Z,21.40
2018-05-31T20:21:05.693Z,21.50
2018-05-31T20:23:35.491Z,21.70
2018-05-31T20:26:05.363Z,21.90
2018-05-31T20:28:34.381Z,21.50
2018-05-31T20:31:04.195Z,21.40
2018-05-31T20:33:33.289Z,21.20
2018-05-31T20:36:02.341Z,21.50
2018-05-31T20:38:31.356Z,21.10
2018-05-31T20:41:01.244Z,21.00
2018-05-31T20:43:31.340Z,21.10
2018-05-31T20:46:00.428Z,21.10
2018-05-31T20:48:29.465Z,21.10
2018-05-31T20:50:58.492Z,21.20
2018-05-31T20:53:28.093Z,21.30
2018-05-31T20:55:57.135Z,21.40
2018-05-31T20:58:26.147Z,21.40
2018-05-31T21:00:55.194Z,21.30
2018-05-31T21:03:24.984Z,21.20
2018-05-31T21:05:54.023Z,20.80
2018-05-31T21:08:23.043Z,20.70
2018-05-31T21:10:52.085Z,20.40
2018-05-31T21:13:21.096Z,20.10
2018-05-31T21:15:50.179Z,19.90
2018-05-31T21:18:20.150Z,19.90
2018-05-31T21:20:49.414Z,19.90
2018-05-31T21:23:19.529Z,19.50
2018-05-31T21:25:48.863Z,19.70
2018-05-31T21:28:17.870Z,19.60
2018-05-31T21:30:46.918Z,19.30
2018-05-31T21:33:16.035Z,18.90
2018-05-31T21:35:46.024Z,18.90
2018-05-31T21:38:15.035Z,19.10
2018-05-31T21:40:44.101Z,19.00
2018-05-31T21:43:14.096Z,19.00
2018-05-31T21:45:44.811Z,19.00
2018-05-31T21:48:14.052Z,19.00
2018-05-31T21:50:43.903Z,18.80
2018-05-31T21:53:16.051Z,18.60
2018-05-31T21:55:45.952Z,18.60
2018-05-31T21:58:17.007Z,18.50
